Time;durP1;ratioP1;P1;durP2;ratioP2;P2;SDS_P1;SDS_P2;PMS_P1;PMS_P2;Temp;Humidity;BMP_temperature;BMP_pressure;BME280_temperature;BME280_humidity;BME280_pressure;Samples;Min_cycle;Max_cycle;Signal;HPM_P1;HPM_P2
2021/10/06 00:01:03;;;;;;;9.57;2.20;;;11.30;99.90;;;;;;5054810;28;20049;-75
2021/10/06 00:03:29;;;;;;;6.25;1.80;;;11.30;99.90;;;;;;5054936;28;20045;-76
2021/10/06 00:05:55;;;;;;;8.57;2.08;;;11.40;99.90;;;;;;5054084;28;20029;-76
2021/10/06 00:08:21;;;;;;;6.00;1.98;;;11.40;99.90;;;;;;5054917;28;20044;-75
2021/10/06 00:10:47;;;;;;;10.32;1.75;;;11.40;99.90;;;;;;5049294;28;20079;-75
2021/10/06 00:13:14;;;;;;;7.97;1.90;;;11.50;99.90;;;;;;5034736;28;20037;-75
2021/10/06 00:15:40;;;;;;;9.68;1.75;;;11.40;99.90;;;;;;5038496;28;20084;-76
2021/10/06 00:18:06;;;;;;;5.88;1.42;;;11.50;99.90;;;;;;5045284;28;20029;-76
2021/10/06 00:20:32;;;;;;;6.82;1.88;;;11.50;99.90;;;;;;5043962;28;20057;-76
2021/10/06 00:22:57;;;;;;;5.72;1.65;;;11.60;99.90;;;;;;5050011;28;20105;-76
2021/10/06 00:25:23;;;;;;;9.13;1.30;;;11.60;99.90;;;;;;5054480;28;20384;-76
2021/10/06 00:27:49;;;;;;;4.35;1.30;;;11.60;99.90;;;;;;5053981;28;20473;-75
2021/10/06 00:30:15;;;;;;;8.68;1.80;;;11.70;99.90;;;;;;5040201;28;20032;-76
2021/10/06 00:32:41;;;;;;;9.00;1.73;;;11.70;99.90;;;;;;5054478;28;20033;-76
2021/10/06 00:35:08;;;;;;;8.40;1.65;;;11.80;99.90;;;;;;5053689;28;20021;-76
2021/10/06 00:37:33;;;;;;;4.45;1.13;;;11.80;99.90;;;;;;5053993;28;20037;-76
2021/10/06 00:39:59;;;;;;;7.18;1.95;;;11.90;99.90;;;;;;5052921;28;20033;-76
2021/10/06 00:42:24;;;;;;;3.88;1.55;;;11.80;99.90;;;;;;5053709;28;20032;-76
2021/10/06 00:44:50;;;;;;;4.22;1.63;;;11.90;99.90;;;;;;5054097;28;20021;-75
2021/10/06 00:47:15;;;;;;;5.63;1.92;;;11.80;99.90;;;;;;5039203;28;20027;-76
2021/10/06 00:49:41;;;;;;;9.63;1.70;;;11.90;99.90;;;;;;5054099;28;20036;-76
2021/10/06 00:52:10;;;;;;;15.40;1.50;;;11.80;99.90;;;;;;5053913;28;20476;-76
2021/10/06 00:54:36;;;;;;;3.90;0.70;;;11.80;99.90;;;;;;5053377;28;20029;-75
2021/10/06 00:57:03;;;;;;;6.43;1.10;;;11.90;99.90;;;;;;5052965;28;20468;-76
2021/10/06 00:59:32;;;;;;;8.02;1.10;;;11.80;99.90;;;;;;5053323;28;20465;-76
2021/10/06 01:01:58;;;;;;;7.30;0.95;;;11.80;99.90;;;;;;5052279;28;20033;-75
2021/10/06 01:04:23;;;;;;;8.05;1.20;;;11.80;99.90;;;;;;5041149;28;20030;-75
2021/10/06 01:06:49;;;;;;;9.32;1.30;;;11.80;99.90;;;;;;5045280;28;20021;-74
2021/10/06 01:09:15;;;;;;;6.80;1.00;;;11.80;99.90;;;;;;5052933;28;20107;-75
2021/10/06 01:11:40;;;;;;;6.25;0.70;;;11.80;99.90;;;;;;5053334;28;20389;-76
2021/10/06 01:14:07;;;;;;;6.85;1.20;;;11.70;99.90;;;;;;5053197;28;20086;-76
2021/10/06 01:16:33;;;;;;;4.03;0.70;;;11.80;99.90;;;;;;5053036;28;20032;-75
2021/10/06 01:18:58;;;;;;;10.18;1.50;;;11.80;99.90;;;;;;5053150;28;20017;-76
2021/10/06 01:21:24;;;;;;;3.90;0.75;;;11.80;99.90;;;;;;5039307;28;20542;-75
2021/10/06 01:23:52;;;;;;;2.83;0.93;;;11.80;99.90;;;;;;5052513;28;20059;-75
2021/10/06 01:26:21;;;;;;;5.47;0.93;;;11.80;99.90;;;;;;5053488;28;20082;-77
2021/10/06 01:28:49;;;;;;;3.05;1.40;;;11.80;99.90;;;;;;5052664;28;20025;-76
2021/10/06 01:31:15;;;;;;;5.10;0.50;;;11.90;99.90;;;;;;5052633;28;20021;-76
2021/10/06 01:33:41;;;;;;;5.00;1.15;;;11.90;99.90;;;;;;5053120;28;20025;-76
2021/10/06 01:36:07;;;;;;;4.50;1.02;;;11.80;99.90;;;;;;5052940;28;20067;-75
2021/10/06 01:38:33;;;;;;;4.57;0.57;;;11.80;99.90;;;;;;5052874;28;20477;-76
2021/10/06 01:40:58;;;;;;;5.30;0.75;;;11.80;99.90;;;;;;5052916;28;20021;-76
2021/10/06 01:43:24;;;;;;;5.22;1.00;;;11.80;99.90;;;;;;5054372;28;20112;-76
2021/10/06 01:45:49;;;;;;;6.32;0.75;;;11.70;99.90;;;;;;5052620;28;20031;-76
2021/10/06 01:48:15;;;;;;;3.25;0.63;;;11.80;99.90;;;;;;5053002;28;20029;-76
2021/10/06 01:50:42;;;;;;;2.55;0.60;;;11.80;99.90;;;;;;5052207;28;20021;-76
2021/10/06 01:53:13;;;;;;;4.80;0.70;;;11.80;99.90;;;;;;5052990;28;20025;-76
2021/10/06 01:55:39;;;;;;;;;;;11.80;99.90;;;;;;5053384;28;20021;-76
2021/10/06 01:58:17;;;;;;;5.97;0.70;;;11.80;99.90;;;;;;5054171;28;19916;-75
2021/10/06 02:00:45;;;;;;;5.55;0.70;;;11.70;99.90;;;;;;5053095;28;20024;-74
2021/10/06 02:03:11;;;;;;;5.03;1.27;;;11.70;99.90;;;;;;5052736;28;20036;-74
2021/10/06 02:05:37;;;;;;;4.20;0.70;;;11.70;99.90;;;;;;5052557;28;20021;-77
2021/10/06 02:08:04;;;;;;;2.70;0.75;;;11.70;99.90;;;;;;5052729;28;20028;-77
2021/10/06 02:10:31;;;;;;;7.68;0.65;;;11.60;99.90;;;;;;5052438;28;20017;-74
2021/10/06 02:12:57;;;;;;;5.93;0.93;;;11.50;99.90;;;;;;5051765;28;20032;-75
2021/10/06 02:15:23;;;;;;;3.13;0.73;;;11.50;99.90;;;;;;5052398;28;20377;-75
2021/10/06 02:17:53;;;;;;;4.82;0.95;;;11.50;99.90;;;;;;5051904;28;20488;-74
2021/10/06 02:20:19;;;;;;;3.35;0.75;;;11.50;99.90;;;;;;5041355;28;20077;-75
2021/10/06 02:22:44;;;;;;;4.45;0.50;;;11.40;99.90;;;;;;5048364;28;20441;-76
2021/10/06 02:25:10;;;;;;;4.28;0.55;;;11.50;99.90;;;;;;5052576;28;20023;-76
2021/10/06 02:27:36;;;;;;;5.68;0.60;;;11.40;99.90;;;;;;5051567;28;20025;-76
2021/10/06 02:30:04;;;;;;;6.93;1.05;;;11.30;99.90;;;;;;5052244;28;20021;-75
2021/10/06 02:32:30;;;;;;;3.47;0.60;;;11.30;99.90;;;;;;5052150;28;20067;-75
2021/10/06 02:34:56;;;;;;;4.85;0.60;;;11.30;99.90;;;;;;5051583;28;20044;-76
2021/10/06 02:37:21;;;;;;;4.55;0.65;;;11.30;99.90;;;;;;5052257;28;20470;-75
2021/10/06 02:39:47;;;;;;;5.70;1.33;;;11.20;99.90;;;;;;5051217;28;20475;-75
2021/10/06 02:42:12;;;;;;;2.85;0.73;;;11.20;99.90;;;;;;5052094;28;20550;-75
2021/10/06 02:44:38;;;;;;;4.43;0.60;;;11.20;99.90;;;;;;5052009;28;20389;-74
2021/10/06 02:47:04;;;;;;;9.32;0.65;;;11.20;99.90;;;;;;5050863;28;20032;-75
2021/10/06 02:49:30;;;;;;;4.18;0.70;;;11.20;99.90;;;;;;5052364;28;20025;-75
2021/10/06 02:51:55;;;;;;;3.20;0.80;;;11.10;99.90;;;;;;5051801;28;20029;-75
2021/10/06 02:54:21;;;;;;;4.47;0.70;;;11.10;99.90;;;;;;5051601;28;20032;-75
2021/10/06 02:56:47;;;;;;;5.25;0.80;;;11.10;99.90;;;;;;5050439;28;20043;-75
2021/10/06 02:59:12;;;;;;;6.32;1.15;;;11.10;99.90;;;;;;5051006;28;20389;-74
2021/10/06 03:01:38;;;;;;;9.27;2.05;;;11.10;99.90;;;;;;5051592;28;20107;-74
2021/10/06 03:04:03;;;;;;;6.10;1.25;;;11.10;99.90;;;;;;5058394;28;20021;-76
2021/10/06 03:06:29;;;;;;;5.97;1.02;;;11.20;99.90;;;;;;5058891;28;20033;-76
2021/10/06 03:08:57;;;;;;;9.27;1.55;;;11.10;99.90;;;;;;5057733;28;20587;-74
2021/10/06 03:11:23;;;;;;;6.90;1.35;;;11.10;99.90;;;;;;5058570;28;20568;-74
2021/10/06 03:13:48;;;;;;;6.32;0.80;;;11.10;99.90;;;;;;5057987;28;20123;-75
2021/10/06 03:16:14;;;;;;;2.53;0.70;;;11.10;99.90;;;;;;5057624;28;20033;-74
2021/10/06 03:18:39;;;;;;;8.10;0.93;;;11.10;99.90;;;;;;5058522;28;20021;-75
2021/10/06 03:21:05;;;;;;;2.78;0.55;;;11.10;99.90;;;;;;5043709;28;20152;-75
2021/10/06 03:23:31;;;;;;;2.67;0.90;;;11.10;99.90;;;;;;5057906;28;20070;-75
2021/10/06 03:25:56;;;;;;;4.78;1.05;;;11.00;99.90;;;;;;5058170;28;20469;-75
2021/10/06 03:28:22;;;;;;;5.05;1.08;;;11.00;99.90;;;;;;5058487;28;20028;-75
2021/10/06 03:30:48;;;;;;;3.97;0.82;;;11.00;99.90;;;;;;5057428;28;20056;-75
2021/10/06 03:33:13;;;;;;;5.05;0.85;;;11.00;99.90;;;;;;5059163;28;20028;-75
2021/10/06 03:35:39;;;;;;;6.38;0.90;;;11.00;99.90;;;;;;5058863;28;20029;-75
2021/10/06 03:38:05;;;;;;;8.80;0.93;;;10.90;99.90;;;;;;5057150;28;20492;-75
2021/10/06 03:40:30;;;;;;;7.80;1.15;;;10.90;99.90;;;;;;5058765;28;20161;-74
2021/10/06 03:42:56;;;;;;;2.03;0.63;;;11.00;99.90;;;;;;5058186;28;20028;-73
2021/10/06 03:45:22;;;;;;;6.70;0.90;;;11.00;99.90;;;;;;5058763;28;20354;-75
2021/10/06 03:47:47;;;;;;;2.35;0.80;;;11.00;99.90;;;;;;5058170;28;20036;-76
2021/10/06 03:50:18;;;;;;;5.70;1.15;;;11.00;99.90;;;;;;5057583;28;20053;-75
2021/10/06 03:52:44;;;;;;;5.55;0.95;;;11.00;99.90;;;;;;5058058;28;20081;-75
2021/10/06 03:55:13;;;;;;;8.55;2.47;;;11.00;99.90;;;;;;5058112;28;20029;-75
2021/10/06 03:57:38;;;;;;;6.15;1.08;;;11.00;99.90;;;;;;5057316;28;20183;-75
2021/10/06 04:00:07;;;;;;;11.60;1.33;;;11.00;99.90;;;;;;5057772;28;20540;-75
2021/10/06 04:02:32;;;;;;;8.00;1.55;;;10.90;99.90;;;;;;5058563;28;20103;-75
2021/10/06 04:05:10;;;;;;;5.00;1.35;;;10.90;99.90;;;;;;5057306;28;20444;-75
2021/10/06 04:07:36;;;;;;;6.93;1.08;;;10.90;99.90;;;;;;5057930;28;20029;-75
2021/10/06 04:10:03;;;;;;;6.15;1.23;;;10.90;99.90;;;;;;5057834;28;20083;-75
2021/10/06 04:12:29;;;;;;;4.57;1.33;;;10.90;99.90;;;;;;5057119;28;20051;-75
2021/10/06 04:14:54;;;;;;;6.57;1.50;;;10.90;99.90;;;;;;5042575;28;20536;-75
2021/10/06 04:17:20;;;;;;;4.97;1.15;;;11.00;99.90;;;;;;5052459;28;20033;-74
2021/10/06 04:19:46;;;;;;;7.05;1.20;;;11.00;99.90;;;;;;5047932;28;20037;-75
2021/10/06 04:22:12;;;;;;;9.18;1.35;;;11.00;99.90;;;;;;5046798;28;20032;-75
2021/10/06 04:24:37;;;;;;;3.97;1.20;;;11.00;99.90;;;;;;5054374;28;20100;-76
2021/10/06 04:27:03;;;;;;;7.63;1.40;;;11.00;99.90;;;;;;5053679;28;20506;-75
2021/10/06 04:29:29;;;;;;;4.05;1.20;;;11.00;99.90;;;;;;5054698;28;20025;-76
2021/10/06 04:31:54;;;;;;;8.93;1.73;;;11.00;99.90;;;;;;5054087;28;20021;-75
2021/10/06 04:34:20;;;;;;;5.95;1.67;;;11.00;99.90;;;;;;5054085;28;20029;-76
2021/10/06 04:36:45;;;;;;;9.70;1.98;;;11.00;99.90;;;;;;5053567;28;20041;-75
2021/10/06 04:39:11;;;;;;;6.43;1.20;;;11.00;99.90;;;;;;5053779;28;20546;-74
2021/10/06 04:41:37;;;;;;;10.63;2.40;;;11.00;99.90;;;;;;5053457;28;20035;-75
2021/10/06 04:44:02;;;;;;;8.65;2.35;;;11.00;99.90;;;;;;5054141;28;20021;-76
2021/10/06 04:46:29;;;;;;;8.43;1.77;;;11.10;99.90;;;;;;5053665;28;20029;-74
2021/10/06 04:48:55;;;;;;;16.00;3.03;;;11.10;99.90;;;;;;5054237;28;20461;-74
2021/10/06 04:51:20;;;;;;;14.15;2.15;;;11.10;99.90;;;;;;5054585;28;20120;-74
2021/10/06 04:53:46;;;;;;;7.57;1.65;;;11.10;99.90;;;;;;5055774;28;20021;-74
2021/10/06 04:56:11;;;;;;;10.48;1.65;;;11.20;99.90;;;;;;5062199;28;20029;-75
2021/10/06 04:58:37;;;;;;;11.25;1.65;;;11.30;99.90;;;;;;5061357;28;20021;-74
2021/10/06 05:01:03;;;;;;;10.07;1.92;;;11.30;99.90;;;;;;5053151;28;20017;-75
2021/10/06 05:03:29;;;;;;;10.77;3.05;;;11.40;99.90;;;;;;5053987;28;20465;-75
2021/10/06 05:05:55;;;;;;;5.65;1.60;;;11.30;99.90;;;;;;5054005;28;20040;-75
2021/10/06 05:08:20;;;;;;;9.88;1.52;;;11.30;99.90;;;;;;5053598;28;20045;-76
2021/10/06 05:10:46;;;;;;;12.32;1.90;;;11.30;99.90;;;;;;5055007;28;20381;-75
2021/10/06 05:13:11;;;;;;;3.97;1.23;;;11.40;99.90;;;;;;5054702;28;20021;-75
2021/10/06 05:15:37;;;;;;;5.88;1.50;;;11.30;99.90;;;;;;5053151;28;20100;-74
2021/10/06 05:18:06;;;;;;;7.28;1.70;;;11.40;99.90;;;;;;5053512;28;20053;-74
2021/10/06 05:20:31;;;;;;;7.93;1.48;;;11.40;99.90;;;;;;5041414;28;20041;-74
2021/10/06 05:22:57;;;;;;;11.85;1.30;;;11.40;99.90;;;;;;5050705;28;20036;-74
2021/10/06 05:25:23;;;;;;;10.63;1.45;;;11.40;99.90;;;;;;5053060;28;20109;-74
2021/10/06 05:27:50;;;;;;;11.80;1.60;;;11.40;99.90;;;;;;5052925;28;20025;-76
2021/10/06 05:30:16;;;;;;;10.30;2.38;;;11.40;99.90;;;;;;5045304;28;20037;-76
2021/10/06 05:32:42;;;;;;;6.95;2.35;;;11.30;99.90;;;;;;5033280;28;20025;-76
2021/10/06 05:35:08;;;;;;;8.63;1.38;;;11.40;99.90;;;;;;5047424;28;20021;-74
2021/10/06 05:37:34;;;;;;;9.93;1.98;;;11.40;99.90;;;;;;5042726;28;20071;-75
2021/10/06 05:39:59;;;;;;;6.97;1.50;;;11.40;99.90;;;;;;5052842;28;20056;-74
2021/10/06 05:42:25;;;;;;;7.50;1.90;;;11.40;99.90;;;;;;5053499;28;20025;-75
2021/10/06 05:44:50;;;;;;;9.90;1.42;;;11.40;99.90;;;;;;5052622;28;20566;-75
2021/10/06 05:47:16;;;;;;;12.18;1.75;;;11.40;99.90;;;;;;5052988;28;20036;-75
2021/10/06 05:49:42;;;;;;;9.77;3.03;;;11.40;99.90;;;;;;5051895;28;20035;-73
2021/10/06 05:52:07;;;;;;;13.43;1.73;;;11.40;99.90;;;;;;5034512;28;20033;-74
2021/10/06 05:54:34;;;;;;;13.63;2.08;;;11.40;99.90;;;;;;5037814;28;20106;-75
2021/10/06 05:57:00;;;;;;;11.68;2.22;;;11.40;99.90;;;;;;5032796;28;20041;-75
2021/10/06 05:59:26;;;;;;;10.00;2.13;;;11.40;99.90;;;;;;5034061;28;20112;-74
2021/10/06 06:01:51;;;;;;;8.80;1.65;;;11.40;99.90;;;;;;5032097;28;20079;-74
2021/10/06 06:04:17;;;;;;;10.77;1.70;;;11.40;99.90;;;;;;5034975;28;20013;-75
2021/10/06 06:06:44;;;;;;;15.73;2.25;;;11.40;99.90;;;;;;5032381;28;20469;-75
2021/10/06 06:09:11;;;;;;;9.82;1.77;;;11.40;99.90;;;;;;5037934;28;20366;-76
2021/10/06 06:11:36;;;;;;;15.75;2.70;;;11.50;99.90;;;;;;5035020;28;20067;-74
2021/10/06 06:14:03;;;;;;;7.78;2.00;;;11.50;99.90;;;;;;5031797;28;20029;-76
2021/10/06 06:16:29;;;;;;;15.18;2.03;;;11.40;99.90;;;;;;5037579;28;20048;-74
2021/10/06 06:18:55;;;;;;;10.48;1.88;;;11.50;99.90;;;;;;5033033;28;20021;-73
2021/10/06 06:21:20;;;;;;;12.48;1.95;;;11.40;99.90;;;;;;5046134;28;20061;-74
2021/10/06 06:23:47;;;;;;;15.82;2.10;;;11.50;99.90;;;;;;5049873;28;20020;-74
2021/10/06 06:26:13;;;;;;;9.27;2.03;;;11.50;99.90;;;;;;5048991;28;20075;-75
2021/10/06 06:28:39;;;;;;;10.50;1.95;;;11.50;99.90;;;;;;5050994;28;20124;-74
2021/10/06 06:31:06;;;;;;;8.82;1.80;;;11.50;99.90;;;;;;5047830;28;20101;-75
2021/10/06 06:33:32;;;;;;;9.40;2.00;;;11.60;99.90;;;;;;5050955;28;20021;-74
2021/10/06 06:35:59;;;;;;;7.55;1.75;;;11.60;99.90;;;;;;5048922;28;20032;-75
2021/10/06 06:38:28;;;;;;;8.88;1.63;;;11.60;99.90;;;;;;5047060;28;20033;-75
2021/10/06 06:40:53;;;;;;;8.38;1.67;;;11.70;99.90;;;;;;5049891;28;20016;-75
2021/10/06 06:43:19;;;;;;;12.77;1.95;;;11.70;99.90;;;;;;5046693;28;20056;-75
2021/10/06 06:45:45;;;;;;;7.40;1.48;;;11.80;99.90;;;;;;5050371;28;20029;-74
2021/10/06 06:48:10;;;;;;;5.95;1.40;;;11.80;99.90;;;;;;5050148;28;20016;-75
2021/10/06 06:50:36;;;;;;;17.00;2.05;;;11.80;99.90;;;;;;5043462;28;20021;-74
2021/10/06 06:53:01;;;;;;;5.78;1.23;;;11.80;99.90;;;;;;5050723;28;20035;-75
2021/10/06 06:55:27;;;;;;;14.35;1.90;;;11.80;99.90;;;;;;5047317;28;20017;-75
2021/10/06 06:57:53;;;;;;;4.43;1.40;;;11.80;99.90;;;;;;5049518;28;20473;-75
2021/10/06 07:00:21;;;;;;;9.80;2.13;;;11.80;99.90;;;;;;5041550;28;20021;-75
2021/10/06 07:02:46;;;;;;;5.85;1.48;;;11.80;99.90;;;;;;5043212;28;20024;-75
2021/10/06 07:05:12;;;;;;;9.95;1.67;;;11.90;99.90;;;;;;5050606;28;20024;-74
2021/10/06 07:07:37;;;;;;;7.90;1.42;;;11.90;99.90;;;;;;5048140;28;20021;-75
2021/10/06 07:10:04;;;;;;;6.95;1.60;;;11.90;99.90;;;;;;5048669;28;20025;-76
2021/10/06 07:12:30;;;;;;;3.47;0.98;;;12.00;99.90;;;;;;5048682;28;20377;-74
2021/10/06 07:14:56;;;;;;;7.15;1.52;;;12.00;99.90;;;;;;5044968;28;20503;-73
2021/10/06 07:17:21;;;;;;;7.72;1.63;;;12.10;99.90;;;;;;5048409;28;20037;-74
2021/10/06 07:19:47;;;;;;;4.80;1.58;;;12.00;99.90;;;;;;5044694;28;20037;-75
2021/10/06 07:22:15;;;;;;;11.73;3.53;;;12.20;99.90;;;;;;5048120;28;20039;-75
2021/10/06 07:24:41;;;;;;;6.88;1.55;;;12.20;99.90;;;;;;5047247;28;20024;-74
2021/10/06 07:27:06;;;;;;;11.90;1.85;;;12.20;99.90;;;;;;5049688;28;20017;-77
2021/10/06 07:29:32;;;;;;;11.25;1.52;;;12.30;99.90;;;;;;5032582;28;20105;-76
2021/10/06 07:31:58;;;;;;;7.65;1.60;;;12.30;99.90;;;;;;5031499;28;20047;-76
2021/10/06 07:34:24;;;;;;;5.82;1.13;;;12.30;99.90;;;;;;5045656;28;20029;-76
2021/10/06 07:36:53;;;;;;;6.35;1.52;;;12.30;99.90;;;;;;5031434;28;20432;-75
2021/10/06 07:39:19;;;;;;;7.50;1.52;;;12.20;99.90;;;;;;5031744;28;20109;-77
2021/10/06 07:41:44;;;;;;;9.45;2.28;;;12.20;99.90;;;;;;5031336;28;20053;-77
2021/10/06 07:44:10;;;;;;;7.95;2.25;;;12.20;99.90;;;;;;5031180;28;20029;-76
2021/10/06 07:46:36;;;;;;;5.55;1.52;;;12.20;99.90;;;;;;5044346;28;20107;-78
2021/10/06 07:49:01;;;;;;;4.38;1.17;;;12.20;99.90;;;;;;5053789;28;20025;-76
2021/10/06 07:51:27;;;;;;;10.35;1.50;;;12.10;99.90;;;;;;5055225;28;20393;-76
2021/10/06 07:53:53;;;;;;;5.03;1.45;;;12.10;99.90;;;;;;5054068;28;20036;-80
2021/10/06 07:56:20;;;;;;;8.52;2.03;;;12.00;99.90;;;;;;5047223;28;20040;-81
2021/10/06 07:58:46;;;;;;;7.07;1.70;;;12.00;99.90;;;;;;5047073;28;20087;-80
2021/10/06 08:01:11;;;;;;;10.02;1.60;;;11.90;99.90;;;;;;5054110;28;20135;-80
2021/10/06 08:03:37;;;;;;;13.32;2.58;;;12.00;99.90;;;;;;5041891;28;20013;-80
2021/10/06 08:06:03;;;;;;;5.93;1.92;;;12.00;99.90;;;;;;5044338;28;20017;-79
2021/10/06 08:08:29;;;;;;;10.32;1.83;;;12.00;99.90;;;;;;5055105;28;20025;-79
2021/10/06 08:10:56;;;;;;;9.48;2.40;;;11.90;99.90;;;;;;5050350;28;20017;-78
2021/10/06 08:13:25;;;;;;;10.68;1.90;;;12.00;99.90;;;;;;5051019;28;20362;-78
2021/10/06 08:15:52;;;;;;;9.35;1.60;;;12.00;99.90;;;;;;5047635;28;20021;-81
2021/10/06 08:18:19;;;;;;;9.95;1.60;;;12.00;99.90;;;;;;5051470;28;20033;-80
2021/10/06 08:20:46;;;;;;;14.95;2.13;;;12.10;99.90;;;;;;5052438;28;20037;-78
2021/10/06 08:23:15;;;;;;;10.93;2.55;;;12.10;99.90;;;;;;5050794;28;20056;-79
2021/10/06 08:25:41;;;;;;;17.90;2.47;;;12.00;99.90;;;;;;5053797;28;20037;-78
2021/10/06 08:28:06;;;;;;;10.63;1.70;;;12.00;99.90;;;;;;5053796;28;20539;-79
2021/10/06 08:30:32;;;;;;;12.32;2.15;;;12.00;99.90;;;;;;5053329;28;20047;-79
2021/10/06 08:32:58;;;;;;;9.07;2.17;;;12.00;99.90;;;;;;5050788;28;20025;-80
2021/10/06 08:35:23;;;;;;;11.82;2.05;;;11.90;99.90;;;;;;5049556;28;20033;-80
2021/10/06 08:37:49;;;;;;;11.98;2.60;;;11.90;99.90;;;;;;5052256;28;20120;-79
2021/10/06 08:40:14;;;;;;;9.07;1.88;;;11.90;99.90;;;;;;5047656;28;20029;-78
2021/10/06 08:42:42;;;;;;;10.57;1.92;;;11.90;99.90;;;;;;5048275;28;20021;-79
2021/10/06 08:45:08;;;;;;;6.75;1.90;;;11.90;99.90;;;;;;5046369;28;20022;-79
2021/10/06 08:47:38;;;;;;;11.77;3.35;;;11.80;99.90;;;;;;5049873;28;20024;-79
2021/10/06 08:50:05;;;;;;;11.27;1.73;;;11.90;99.90;;;;;;5044945;28;20033;-79
2021/10/06 08:52:31;;;;;;;13.15;2.78;;;11.90;99.90;;;;;;5047637;28;20040;-79
2021/10/06 08:54:57;;;;;;;14.57;2.17;;;11.90;99.90;;;;;;5050808;28;20357;-82
2021/10/06 08:57:22;;;;;;;10.35;1.73;;;11.90;99.90;;;;;;5048329;28;20150;-82
2021/10/06 08:59:48;;;;;;;9.20;1.80;;;11.80;99.90;;;;;;5049825;28;20032;-81
2021/10/06 09:02:15;;;;;;;11.63;1.92;;;11.80;99.90;;;;;;5050199;28;20044;-80
2021/10/06 09:04:41;;;;;;;14.70;2.95;;;11.80;99.90;;;;;;5051074;28;20032;-78
2021/10/06 09:07:07;;;;;;;7.38;2.33;;;11.80;99.90;;;;;;5045736;28;20041;-78
2021/10/06 09:09:35;;;;;;;10.63;2.03;;;11.90;99.90;;;;;;5048922;28;20796;-78
2021/10/06 09:12:14;;;;;;;4.45;1.40;;;11.80;99.90;;;;;;5048794;28;20627;-79
2021/10/06 09:14:45;;;;;;;8.18;1.63;;;11.80;99.90;;;;;;5048810;28;20031;-78
2021/10/06 09:17:13;;;;;;;4.20;1.20;;;11.80;99.90;;;;;;5052045;28;20040;-80
2021/10/06 09:19:41;;;;;;;6.10;1.67;;;11.80;99.90;;;;;;5047620;28;20124;-76
2021/10/06 09:22:18;;;;;;;10.38;1.52;;;11.90;99.90;;;;;;5049281;28;20037;-77
2021/10/06 09:24:50;;;;;;;1.67;0.80;;;11.90;99.90;;;;;;5047707;28;20029;-78
2021/10/06 09:27:29;;;;;;;9.60;1.95;;;11.80;99.90;;;;;;5046076;28;20472;-77
2021/10/06 09:29:57;;;;;;;14.45;2.25;;;11.80;99.90;;;;;;5045659;28;20059;-77
2021/10/06 09:32:23;;;;;;;10.15;2.38;;;11.90;99.90;;;;;;5049890;28;20023;-78
2021/10/06 09:35:09;;;;;;;9.27;2.55;;;11.90;99.90;;;;;;5046308;28;20129;-80
2021/10/06 09:37:36;;;;;;;16.15;2.70;;;11.90;99.90;;;;;;5048775;28;20092;-80
2021/10/06 09:40:04;;;;;;;15.55;2.80;;;11.90;99.90;;;;;;5045171;28;20389;-80
2021/10/06 09:42:30;;;;;;;19.42;2.50;;;12.00;99.90;;;;;;5048419;28;20419;-80
2021/10/06 09:44:58;;;;;;;17.13;2.53;;;12.10;99.90;;;;;;5048413;28;20047;-77
2021/10/06 09:47:25;;;;;;;13.15;2.65;;;12.30;99.90;;;;;;5049052;28;20439;-73
2021/10/06 09:49:56;;;;;;;17.77;3.78;;;12.40;99.90;;;;;;5047684;28;20039;-80
2021/10/06 09:52:27;;;;;;;13.52;2.70;;;12.50;99.90;;;;;;5051829;28;20036;-81
2021/10/06 09:54:55;;;;;;;11.95;2.60;;;12.60;99.90;;;;;;5050361;28;20097;-80
2021/10/06 09:57:33;;;;;;;18.17;4.57;;;12.80;99.90;;;;;;5050490;28;20052;-79
2021/10/06 10:00:15;;;;;;;12.43;2.15;;;13.00;99.90;;;;;;5049367;28;20074;-79
2021/10/06 10:02:41;;;;;;;10.90;2.22;;;13.10;99.90;;;;;;5051386;28;20029;-79
2021/10/06 10:05:08;;;;;;;28.38;5.50;;;13.20;99.90;;;;;;5048120;28;20028;-79
2021/10/06 10:07:34;;;;;;;16.05;2.53;;;13.30;99.90;;;;;;5051022;28;20021;-81
2021/10/06 10:10:01;;;;;;;12.23;1.90;;;13.40;99.90;;;;;;5049167;28;20048;-79
2021/10/06 10:12:28;;;;;;;13.52;2.00;;;13.50;99.90;;;;;;5051936;28;20044;-79
2021/10/06 10:14:56;;;;;;;10.70;2.42;;;13.60;99.90;;;;;;5047156;28;20461;-79
2021/10/06 10:17:23;;;;;;;15.20;2.35;;;13.60;99.90;;;;;;5046939;28;20037;-79
2021/10/06 10:19:54;;;;;;;14.15;1.95;;;13.70;99.90;;;;;;5050009;28;20063;-80
2021/10/06 10:22:21;;;;;;;12.23;1.55;;;13.90;99.90;;;;;;5051240;28;20174;-81
2021/10/06 10:24:49;;;;;;;18.83;3.08;;;14.10;99.90;;;;;;5049953;28;20017;-78
2021/10/06 10:27:18;;;;;;;12.95;3.00;;;14.20;99.90;;;;;;5050553;28;20025;-78
2021/10/06 10:29:47;;;;;;;12.65;3.17;;;14.70;99.90;;;;;;5049981;28;20043;-79
2021/10/06 10:32:15;;;;;;;12.65;2.70;;;14.30;99.90;;;;;;5047107;28;20025;-78
2021/10/06 10:35:08;;;;;;;11.38;2.65;;;14.30;99.90;;;;;;5046778;28;20018;-78
2021/10/06 10:37:48;;;;;;;9.07;2.20;;;14.30;99.90;;;;;;5042587;28;20033;-78
2021/10/06 10:43:00;;;;;;;10.60;2.13;;;14.10;99.90;;;;;;5038745;28;20033;-77
2021/10/06 10:45:59;;;;;;;8.73;1.30;;;13.90;99.90;;;;;;5034433;28;20031;-77
2021/10/06 10:48:32;;;;;;;5.65;1.80;;;13.80;99.90;;;;;;5044807;28;20387;-78
2021/10/06 10:50:57;;;;;;;8.73;1.85;;;13.80;99.90;;;;;;5031748;28;20608;-77
2021/10/06 10:53:51;;;;;;;11.98;2.92;;;13.90;99.90;;;;;;5045747;28;20108;-77
2021/10/06 10:56:41;;;;;;;11.43;1.88;;;14.00;99.90;;;;;;5032145;28;20078;-76
2021/10/06 10:59:21;;;;;;;8.77;1.63;;;14.00;99.90;;;;;;5031563;28;20389;-76
2021/10/06 11:01:56;;;;;;;14.25;3.38;;;14.10;99.90;;;;;;5035309;28;20032;-77
2021/10/06 11:04:29;;;;;;;9.95;1.60;;;14.00;99.90;;;;;;5045013;28;20381;-77
2021/10/06 11:07:12;;;;;;;7.28;1.30;;;13.90;99.90;;;;;;5036099;28;20013;-78
2021/10/06 11:09:48;;;;;;;6.20;1.50;;;13.80;99.90;;;;;;5031958;28;20029;-76
2021/10/06 11:12:14;;;;;;;5.50;1.30;;;13.80;99.90;;;;;;5033650;28;20369;-77
2021/10/06 11:14:42;;;;;;;6.60;1.38;;;13.80;99.90;;;;;;5037008;28;20029;-76
2021/10/06 11:17:15;;;;;;;9.20;2.28;;;13.90;99.90;;;;;;5032157;28;20128;-78
2021/10/06 11:19:43;;;;;;;7.25;1.88;;;14.10;99.90;;;;;;5054375;28;20041;-79
2021/10/06 11:22:24;;;;;;;13.90;2.28;;;14.20;99.90;;;;;;5044756;28;20528;-81
2021/10/06 11:25:04;;;;;;;;;;;14.40;99.90;;;;;;5050940;28;20443;-80
2021/10/06 11:27:44;;;;;;;7.47;1.67;;;14.60;99.90;;;;;;5055485;28;19912;-80
2021/10/06 11:30:12;;;;;;;6.43;1.50;;;14.90;99.90;;;;;;5052863;28;20822;-80
2021/10/06 11:32:45;;;;;;;4.10;1.48;;;15.10;99.90;;;;;;5044416;28;20033;-80
2021/10/06 11:35:10;;;;;;;13.25;2.17;;;15.10;99.90;;;;;;5058076;28;20029;-80
2021/10/06 11:37:36;;;;;;;9.43;1.70;;;15.30;99.90;;;;;;5056164;28;20373;-80
2021/10/06 11:40:15;;;;;;;11.75;2.00;;;15.20;99.90;;;;;;5055756;28;20047;-80
2021/10/06 11:42:41;;;;;;;8.10;1.75;;;15.10;99.90;;;;;;5054748;28;20124;-80
2021/10/06 11:45:18;;;;;;;9.52;1.65;;;15.00;99.90;;;;;;5055472;28;20021;-79
2021/10/06 11:47:43;;;;;;;3.15;1.02;;;15.00;99.90;;;;;;5056021;28;20024;-80
2021/10/06 11:50:09;;;;;;;5.57;1.10;;;14.90;99.90;;;;;;5054905;28;20033;-79
2021/10/06 11:52:35;;;;;;;4.57;0.80;;;14.90;99.90;;;;;;5055638;28;20424;-80
2021/10/06 11:55:01;;;;;;;3.92;1.08;;;14.80;99.90;;;;;;5055098;28;20503;-80
2021/10/06 11:57:27;;;;;;;7.32;1.23;;;14.90;99.90;;;;;;5040865;28;20033;-80
2021/10/06 11:59:55;;;;;;;6.57;1.42;;;14.90;99.90;;;;;;5055099;28;20063;-79
2021/10/06 12:02:21;;;;;;;6.82;1.00;;;14.90;99.90;;;;;;5055149;28;20559;-79
2021/10/06 12:04:52;;;;;;;4.03;1.00;;;14.80;99.90;;;;;;5046613;28;20021;-78
2021/10/06 12:07:19;;;;;;;;;;;14.70;99.90;;;;;;5049647;28;20021;-80
2021/10/06 12:09:48;;;;;;;3.42;1.23;;;14.50;99.90;;;;;;5041424;28;20352;-79
2021/10/06 12:12:31;;;;;;;11.75;1.80;;;14.30;99.90;;;;;;5055226;28;20059;-80
2021/10/06 12:15:00;;;;;;;3.53;0.80;;;14.20;99.90;;;;;;5042330;28;20021;-80
2021/10/06 12:17:43;;;;;;;9.32;1.10;;;14.20;99.90;;;;;;5054374;28;20110;-80
2021/10/06 12:20:13;;;;;;;3.88;0.95;;;14.20;99.90;;;;;;5034835;28;20053;-80
2021/10/06 12:22:40;;;;;;;5.78;1.02;;;14.30;99.90;;;;;;5036575;28;20018;-80
2021/10/06 12:25:15;;;;;;;8.45;1.17;;;14.40;99.90;;;;;;5054915;28;20124;-81
2021/10/06 12:27:43;;;;;;;4.25;1.10;;;14.40;99.90;;;;;;5054313;28;20526;-81
2021/10/06 12:30:30;;;;;;;7.18;1.25;;;14.50;99.90;;;;;;5050150;28;20037;-82
2021/10/06 12:33:05;;;;;;;7.93;1.50;;;14.60;99.90;;;;;;5035423;28;20033;-81
2021/10/06 12:35:43;;;;;;;9.48;1.63;;;14.80;99.90;;;;;;5043011;28;20021;-83
2021/10/06 12:38:09;;;;;;;8.65;1.45;;;15.00;99.90;;;;;;5036160;28;20401;-81
2021/10/06 12:40:37;;;;;;;9.88;1.55;;;15.10;99.90;;;;;;5066392;28;20037;-80
2021/10/06 12:43:07;;;;;;;13.13;2.15;;;15.20;99.90;;;;;;5043119;28;20029;-81
2021/10/06 12:45:33;;;;;;;11.93;2.88;;;15.20;99.90;;;;;;5046338;28;20025;-80
2021/10/06 12:48:00;;;;;;;8.90;1.40;;;15.20;99.90;;;;;;5046429;28;20505;-80
2021/10/06 12:50:25;;;;;;;5.18;1.17;;;15.20;99.90;;;;;;5040166;28;20546;-80